sensor_id;sensor_type;location;lat;lon;timestamp;P1;durP1;ratioP1;P2;durP2;ratioP2
19089;SDS011;9677;50.656;13.064;2023-03-03T00:01:19;14.47;;;13.00;;
19089;SDS011;9677;50.656;13.064;2023-03-03T00:03:51;15.30;;;13.73;;
19089;SDS011;9677;50.656;13.064;2023-03-03T00:06:20;14.83;;;13.47;;
19089;SDS011;9677;50.656;13.064;2023-03-03T00:08:51;15.00;;;13.50;;
19089;SDS011;9677;50.656;13.064;2023-03-03T00:11:20;15.47;;;14.00;;
19089;SDS011;9677;50.656;13.064;2023-03-03T00:13:49;15.30;;;13.90;;
19089;SDS011;9677;50.656;13.064;2023-03-03T00:16:23;15.23;;;13.63;;
19089;SDS011;9677;50.656;13.064;2023-03-03T00:18:55;14.73;;;13.23;;
19089;SDS011;9677;50.656;13.064;2023-03-03T00:21:27;14.43;;;12.93;;
19089;SDS011;9677;50.656;13.064;2023-03-03T00:24:01;15.40;;;14.00;;
19089;SDS011;9677;50.656;13.064;2023-03-03T00:26:44;15.10;;;13.60;;
19089;SDS011;9677;50.656;13.064;2023-03-03T00:32:15;13.73;;;12.47;;
19089;SDS011;9677;50.656;13.064;2023-03-03T00:34:50;15.13;;;13.63;;
19089;SDS011;9677;50.656;13.064;2023-03-03T00:37:22;14.03;;;12.63;;
19089;SDS011;9677;50.656;13.064;2023-03-03T00:40:10;14.50;;;13.00;;
19089;SDS011;9677;50.656;13.064;2023-03-03T00:42:49;14.43;;;13.07;;
19089;SDS011;9677;50.656;13.064;2023-03-03T00:45:23;14.73;;;13.33;;
19089;SDS011;9677;50.656;13.064;2023-03-03T00:47:59;14.17;;;12.83;;
19089;SDS011;9677;50.656;13.064;2023-03-03T00:50:48;14.50;;;13.10;;
19089;SDS011;9677;50.656;13.064;2023-03-03T00:53:19;15.13;;;13.70;;
19089;SDS011;9677;50.656;13.064;2023-03-03T00:55:51;14.70;;;13.23;;
19089;SDS011;9677;50.656;13.064;2023-03-03T00:58:20;14.20;;;12.90;;
19089;SDS011;9677;50.656;13.064;2023-03-03T01:00:51;14.33;;;12.93;;
19089;SDS011;9677;50.656;13.064;2023-03-03T01:03:33;14.73;;;13.33;;
19089;SDS011;9677;50.656;13.064;2023-03-03T01:06:01;14.13;;;12.83;;
19089;SDS011;9677;50.656;13.064;2023-03-03T01:08:31;14.47;;;13.10;;
19089;SDS011;9677;50.656;13.064;2023-03-03T01:11:02;14.93;;;13.40;;
19089;SDS011;9677;50.656;13.064;2023-03-03T01:13:33;14.80;;;13.40;;
19089;SDS011;9677;50.656;13.064;2023-03-03T01:16:03;14.30;;;13.00;;
19089;SDS011;9677;50.656;13.064;2023-03-03T01:18:33;15.23;;;13.77;;
19089;SDS011;9677;50.656;13.064;2023-03-03T01:21:02;15.30;;;13.90;;
19089;SDS011;9677;50.656;13.064;2023-03-03T01:23:31;15.00;;;13.60;;
19089;SDS011;9677;50.656;13.064;2023-03-03T01:26:02;15.97;;;14.37;;
19089;SDS011;9677;50.656;13.064;2023-03-03T01:28:32;15.47;;;13.87;;
19089;SDS011;9677;50.656;13.064;2023-03-03T01:31:01;14.80;;;13.20;;
19089;SDS011;9677;50.656;13.064;2023-03-03T01:33:30;14.90;;;13.40;;
19089;SDS011;9677;50.656;13.064;2023-03-03T01:35:59;14.63;;;13.20;;
19089;SDS011;9677;50.656;13.064;2023-03-03T01:38:28;14.93;;;13.53;;
19089;SDS011;9677;50.656;13.064;2023-03-03T01:40:57;15.83;;;14.23;;
19089;SDS011;9677;50.656;13.064;2023-03-03T01:43:28;15.23;;;13.73;;
19089;SDS011;9677;50.656;13.064;2023-03-03T01:49:12;13.87;;;12.37;;
19089;SDS011;9677;50.656;13.064;2023-03-03T01:51:45;15.13;;;13.63;;
19089;SDS011;9677;50.656;13.064;2023-03-03T01:54:19;14.40;;;13.00;;
19089;SDS011;9677;50.656;13.064;2023-03-03T01:56:54;14.97;;;13.57;;
19089;SDS011;9677;50.656;13.064;2023-03-03T01:59:30;14.87;;;13.57;;
19089;SDS011;9677;50.656;13.064;2023-03-03T02:02:03;13.80;;;12.60;;
19089;SDS011;9677;50.656;13.064;2023-03-03T02:04:32;14.33;;;13.00;;
19089;SDS011;9677;50.656;13.064;2023-03-03T02:07:04;14.40;;;13.00;;
19089;SDS011;9677;50.656;13.064;2023-03-03T02:09:40;15.40;;;13.90;;
19089;SDS011;9677;50.656;13.064;2023-03-03T02:12:20;14.87;;;13.37;;
19089;SDS011;9677;50.656;13.064;2023-03-03T02:14:59;16.03;;;14.43;;
19089;SDS011;9677;50.656;13.064;2023-03-03T02:17:29;15.33;;;13.93;;
19089;SDS011;9677;50.656;13.064;2023-03-03T02:20:05;14.80;;;13.40;;
19089;SDS011;9677;50.656;13.064;2023-03-03T02:22:52;15.10;;;13.80;;
19089;SDS011;9677;50.656;13.064;2023-03-03T02:25:29;14.43;;;13.13;;
19089;SDS011;9677;50.656;13.064;2023-03-03T02:28:07;14.27;;;12.93;;
19089;SDS011;9677;50.656;13.064;2023-03-03T02:30:39;13.70;;;12.40;;
19089;SDS011;9677;50.656;13.064;2023-03-03T02:33:14;14.60;;;13.20;;
19089;SDS011;9677;50.656;13.064;2023-03-03T02:36:13;14.43;;;13.13;;
19089;SDS011;9677;50.656;13.064;2023-03-03T02:38:46;14.77;;;13.37;;
19089;SDS011;9677;50.656;13.064;2023-03-03T02:41:25;14.60;;;13.00;;
19089;SDS011;9677;50.656;13.064;2023-03-03T02:44:03;14.60;;;12.70;;
19089;SDS011;9677;50.656;13.064;2023-03-03T02:46:36;16.30;;;14.70;;
19089;SDS011;9677;50.656;13.064;2023-03-03T02:49:08;14.47;;;13.10;;
19089;SDS011;9677;50.656;13.064;2023-03-03T02:51:43;15.17;;;13.77;;
19089;SDS011;9677;50.656;13.064;2023-03-03T02:54:13;15.40;;;13.77;;
19089;SDS011;9677;50.656;13.064;2023-03-03T02:56:45;14.00;;;12.70;;
19089;SDS011;9677;50.656;13.064;2023-03-03T02:59:17;14.43;;;13.13;;
19089;SDS011;9677;50.656;13.064;2023-03-03T03:01:48;16.13;;;13.60;;
19089;SDS011;9677;50.656;13.064;2023-03-03T03:04:20;15.67;;;14.07;;
19089;SDS011;9677;50.656;13.064;2023-03-03T03:06:53;15.53;;;13.93;;
19089;SDS011;9677;50.656;13.064;2023-03-03T03:09:26;14.87;;;13.37;;
19089;SDS011;9677;50.656;13.064;2023-03-03T03:11:56;16.20;;;14.20;;
19089;SDS011;9677;50.656;13.064;2023-03-03T03:14:33;15.07;;;13.57;;
19089;SDS011;9677;50.656;13.064;2023-03-03T03:17:04;13.37;;;12.07;;
19089;SDS011;9677;50.656;13.064;2023-03-03T03:19:34;15.97;;;14.27;;
19089;SDS011;9677;50.656;13.064;2023-03-03T03:22:03;15.60;;;14.10;;
19089;SDS011;9677;50.656;13.064;2023-03-03T03:24:34;15.43;;;13.93;;
19089;SDS011;9677;50.656;13.064;2023-03-03T03:27:06;15.10;;;13.60;;
19089;SDS011;9677;50.656;13.064;2023-03-03T03:29:38;15.23;;;13.63;;
19089;SDS011;9677;50.656;13.064;2023-03-03T03:32:08;15.60;;;13.73;;
19089;SDS011;9677;50.656;13.064;2023-03-03T03:34:39;15.87;;;14.27;;
19089;SDS011;9677;50.656;13.064;2023-03-03T03:37:28;17.13;;;13.87;;
19089;SDS011;9677;50.656;13.064;2023-03-03T03:39:59;16.53;;;14.93;;
19089;SDS011;9677;50.656;13.064;2023-03-03T03:42:29;14.70;;;13.23;;
19089;SDS011;9677;50.656;13.064;2023-03-03T03:45:00;15.00;;;13.40;;
19089;SDS011;9677;50.656;13.064;2023-03-03T03:47:30;15.40;;;13.70;;
19089;SDS011;9677;50.656;13.064;2023-03-03T03:50:00;16.73;;;14.13;;
19089;SDS011;9677;50.656;13.064;2023-03-03T03:52:29;16.47;;;14.87;;
19089;SDS011;9677;50.656;13.064;2023-03-03T03:54:59;17.40;;;14.30;;
19089;SDS011;9677;50.656;13.064;2023-03-03T03:57:29;17.00;;;13.90;;
19089;SDS011;9677;50.656;13.064;2023-03-03T04:00:00;16.03;;;14.33;;
19089;SDS011;9677;50.656;13.064;2023-03-03T04:02:39;15.40;;;13.80;;
19089;SDS011;9677;50.656;13.064;2023-03-03T04:05:19;15.83;;;14.30;;
19089;SDS011;9677;50.656;13.064;2023-03-03T04:08:11;16.43;;;14.10;;
19089;SDS011;9677;50.656;13.064;2023-03-03T04:10:42;15.20;;;13.70;;
19089;SDS011;9677;50.656;13.064;2023-03-03T04:13:11;16.20;;;14.50;;
19089;SDS011;9677;50.656;13.064;2023-03-03T04:16:10;15.00;;;13.40;;
19089;SDS011;9677;50.656;13.064;2023-03-03T04:18:41;15.77;;;14.07;;
19089;SDS011;9677;50.656;13.064;2023-03-03T04:21:20;15.77;;;14.00;;
19089;SDS011;9677;50.656;13.064;2023-03-03T04:24:29;17.03;;;14.33;;
19089;SDS011;9677;50.656;13.064;2023-03-03T04:27:40;14.87;;;13.30;;
19089;SDS011;9677;50.656;13.064;2023-03-03T04:30:12;15.47;;;13.97;;
19089;SDS011;9677;50.656;13.064;2023-03-03T04:32:47;15.40;;;13.63;;
19089;SDS011;9677;50.656;13.064;2023-03-03T04:35:27;18.30;;;14.93;;
19089;SDS011;9677;50.656;13.064;2023-03-03T04:38:05;16.87;;;15.17;;
19089;SDS011;9677;50.656;13.064;2023-03-03T04:40:38;18.30;;;15.57;;
19089;SDS011;9677;50.656;13.064;2023-03-03T04:43:20;16.90;;;14.33;;
19089;SDS011;9677;50.656;13.064;2023-03-03T04:46:06;17.60;;;14.87;;
19089;SDS011;9677;50.656;13.064;2023-03-03T04:48:52;16.57;;;14.87;;
19089;SDS011;9677;50.656;13.064;2023-03-03T04:51:22;17.60;;;14.50;;
19089;SDS011;9677;50.656;13.064;2023-03-03T04:54:11;16.30;;;14.70;;
19089;SDS011;9677;50.656;13.064;2023-03-03T04:56:45;15.93;;;14.23;;
19089;SDS011;9677;50.656;13.064;2023-03-03T04:59:17;16.60;;;14.90;;
19089;SDS011;9677;50.656;13.064;2023-03-03T05:01:56;16.20;;;14.50;;
19089;SDS011;9677;50.656;13.064;2023-03-03T05:04:27;18.57;;;15.80;;
19089;SDS011;9677;50.656;13.064;2023-03-03T05:07:37;16.30;;;14.60;;
19089;SDS011;9677;50.656;13.064;2023-03-03T05:10:39;17.50;;;15.27;;
19089;SDS011;9677;50.656;13.064;2023-03-03T05:13:12;16.23;;;14.53;;
19089;SDS011;9677;50.656;13.064;2023-03-03T05:15:43;17.33;;;15.53;;
19089;SDS011;9677;50.656;13.064;2023-03-03T05:18:17;16.10;;;14.50;;
19089;SDS011;9677;50.656;13.064;2023-03-03T05:20:48;18.33;;;15.57;;
19089;SDS011;9677;50.656;13.064;2023-03-03T05:23:18;16.70;;;14.90;;
19089;SDS011;9677;50.656;13.064;2023-03-03T05:25:58;17.70;;;15.80;;
19089;SDS011;9677;50.656;13.064;2023-03-03T05:28:27;17.10;;;15.30;;
19089;SDS011;9677;50.656;13.064;2023-03-03T05:30:59;17.00;;;15.23;;
19089;SDS011;9677;50.656;13.064;2023-03-03T05:33:29;17.90;;;16.00;;
19089;SDS011;9677;50.656;13.064;2023-03-03T05:36:27;19.57;;;16.10;;
19089;SDS011;9677;50.656;13.064;2023-03-03T05:38:56;19.90;;;15.37;;
19089;SDS011;9677;50.656;13.064;2023-03-03T05:41:27;16.77;;;14.97;;
19089;SDS011;9677;50.656;13.064;2023-03-03T05:44:01;17.50;;;14.93;;
19089;SDS011;9677;50.656;13.064;2023-03-03T05:46:34;16.17;;;14.57;;
19089;SDS011;9677;50.656;13.064;2023-03-03T05:49:04;17.07;;;15.27;;
19089;SDS011;9677;50.656;13.064;2023-03-03T05:51:35;16.03;;;14.23;;
19089;SDS011;9677;50.656;13.064;2023-03-03T05:54:14;16.50;;;14.87;;
19089;SDS011;9677;50.656;13.064;2023-03-03T05:56:52;16.50;;;14.80;;
19089;SDS011;9677;50.656;13.064;2023-03-03T05:59:23;16.50;;;14.80;;
19089;SDS011;9677;50.656;13.064;2023-03-03T06:01:55;16.67;;;14.93;;
19089;SDS011;9677;50.656;13.064;2023-03-03T06:04:50;17.10;;;15.30;;
19089;SDS011;9677;50.656;13.064;2023-03-03T06:07:56;17.37;;;15.60;;
19089;SDS011;9677;50.656;13.064;2023-03-03T06:10:59;19.40;;;14.90;;
19089;SDS011;9677;50.656;13.064;2023-03-03T06:13:57;17.20;;;15.40;;
19089;SDS011;9677;50.656;13.064;2023-03-03T06:16:29;19.30;;;15.60;;
19089;SDS011;9677;50.656;13.064;2023-03-03T06:19:22;17.50;;;15.10;;
19089;SDS011;9677;50.656;13.064;2023-03-03T06:22:17;17.30;;;15.50;;
19089;SDS011;9677;50.656;13.064;2023-03-03T06:25:27;17.90;;;16.00;;
19089;SDS011;9677;50.656;13.064;2023-03-03T06:28:16;16.37;;;14.67;;
19089;SDS011;9677;50.656;13.064;2023-03-03T06:30:54;18.40;;;15.20;;
19089;SDS011;9677;50.656;13.064;2023-03-03T06:33:49;17.70;;;15.67;;
19089;SDS011;9677;50.656;13.064;2023-03-03T06:37:00;17.10;;;15.27;;
19089;SDS011;9677;50.656;13.064;2023-03-03T06:40:24;17.17;;;14.40;;
19089;SDS011;9677;50.656;13.064;2023-03-03T06:43:44;15.83;;;14.13;;
19089;SDS011;9677;50.656;13.064;2023-03-03T06:46:56;16.83;;;14.97;;
19089;SDS011;9677;50.656;13.064;2023-03-03T06:49:53;16.90;;;14.40;;
19089;SDS011;9677;50.656;13.064;2023-03-03T06:52:54;17.70;;;14.57;;
19089;SDS011;9677;50.656;13.064;2023-03-03T06:56:13;16.53;;;13.93;;
19089;SDS011;9677;50.656;13.064;2023-03-03T06:59:11;17.00;;;15.20;;
19089;SDS011;9677;50.656;13.064;2023-03-03T07:03:13;17.83;;;15.83;;
19089;SDS011;9677;50.656;13.064;2023-03-03T07:06:22;16.87;;;15.00;;
19089;SDS011;9677;50.656;13.064;2023-03-03T07:09:28;16.73;;;14.97;;
19089;SDS011;9677;50.656;13.064;2023-03-03T07:12:19;16.83;;;14.60;;
19089;SDS011;9677;50.656;13.064;2023-03-03T07:15:48;17.63;;;14.23;;
19089;SDS011;9677;50.656;13.064;2023-03-03T07:18:24;16.53;;;14.83;;
19089;SDS011;9677;50.656;13.064;2023-03-03T07:21:07;18.40;;;14.80;;
19089;SDS011;9677;50.656;13.064;2023-03-03T07:24:27;17.70;;;15.43;;
19089;SDS011;9677;50.656;13.064;2023-03-03T07:28:06;16.40;;;14.70;;
19089;SDS011;9677;50.656;13.064;2023-03-03T07:31:16;15.63;;;14.07;;
19089;SDS011;9677;50.656;13.064;2023-03-03T07:35:07;16.40;;;14.73;;
19089;SDS011;9677;50.656;13.064;2023-03-03T07:38:51;18.53;;;14.70;;
19089;SDS011;9677;50.656;13.064;2023-03-03T07:42:44;17.27;;;14.27;;
19089;SDS011;9677;50.656;13.064;2023-03-03T07:47:36;17.13;;;14.13;;
19089;SDS011;9677;50.656;13.064;2023-03-03T07:53:52;18.10;;;15.30;;
19089;SDS011;9677;50.656;13.064;2023-03-03T07:57:45;18.50;;;16.03;;
19089;SDS011;9677;50.656;13.064;2023-03-03T08:03:42;18.80;;;15.17;;
19089;SDS011;9677;50.656;13.064;2023-03-03T08:09:18;16.80;;;14.97;;
19089;SDS011;9677;50.656;13.064;2023-03-03T08:11:43;15.90;;;13.93;;
19089;SDS011;9677;50.656;13.064;2023-03-03T08:27:10;20.80;;;15.60;;
19089;SDS011;9677;50.656;13.064;2023-03-03T08:33:16;22.13;;;17.13;;
19089;SDS011;9677;50.656;13.064;2023-03-03T08:36:21;16.43;;;14.63;;
19089;SDS011;9677;50.656;13.064;2023-03-03T08:40:31;19.17;;;15.70;;
19089;SDS011;9677;50.656;13.064;2023-03-03T08:47:14;18.20;;;15.13;;
19089;SDS011;9677;50.656;13.064;2023-03-03T08:51:14;17.70;;;15.30;;
19089;SDS011;9677;50.656;13.064;2023-03-03T08:54:39;20.33;;;16.47;;
19089;SDS011;9677;50.656;13.064;2023-03-03T08:57:16;21.97;;;15.40;;
19089;SDS011;9677;50.656;13.064;2023-03-03T09:00:51;20.67;;;15.90;;
19089;SDS011;9677;50.656;13.064;2023-03-03T09:04:00;20.30;;;15.90;;
19089;SDS011;9677;50.656;13.064;2023-03-03T09:07:06;19.47;;;16.00;;
19089;SDS011;9677;50.656;13.064;2023-03-03T09:09:39;18.97;;;15.53;;
19089;SDS011;9677;50.656;13.064;2023-03-03T09:12:24;21.17;;;16.17;;
19089;SDS011;9677;50.656;13.064;2023-03-03T09:15:06;19.20;;;15.50;;
19089;SDS011;9677;50.656;13.064;2023-03-03T09:17:44;19.73;;;15.67;;
19089;SDS011;9677;50.656;13.064;2023-03-03T09:20:21;19.13;;;16.47;;
19089;SDS011;9677;50.656;13.064;2023-03-03T09:22:58;18.03;;;15.40;;
19089;SDS011;9677;50.656;13.064;2023-03-03T09:25:49;21.80;;;15.50;;
19089;SDS011;9677;50.656;13.064;2023-03-03T09:28:21;26.10;;;16.43;;
19089;SDS011;9677;50.656;13.064;2023-03-03T09:30:53;24.97;;;15.83;;
19089;SDS011;9677;50.656;13.064;2023-03-03T09:33:50;21.93;;;16.33;;
19089;SDS011;9677;50.656;13.064;2023-03-03T09:36:23;20.10;;;15.47;;
19089;SDS011;9677;50.656;13.064;2023-03-03T09:38:54;24.93;;;16.60;;
19089;SDS011;9677;50.656;13.064;2023-03-03T09:41:45;21.23;;;16.10;;
19089;SDS011;9677;50.656;13.064;2023-03-03T09:45:00;19.70;;;16.40;;
19089;SDS011;9677;50.656;13.064;2023-03-03T09:47:50;20.63;;;15.70;;
19089;SDS011;9677;50.656;13.064;2023-03-03T09:50:47;18.83;;;16.07;;
19089;SDS011;9677;50.656;13.064;2023-03-03T09:53:33;20.00;;;16.80;;
19089;SDS011;9677;50.656;13.064;2023-03-03T09:56:18;18.70;;;15.07;;
19089;SDS011;9677;50.656;13.064;2023-03-03T09:58:59;17.83;;;15.10;;
19089;SDS011;9677;50.656;13.064;2023-03-03T10:02:00;18.60;;;15.70;;
19089;SDS011;9677;50.656;13.064;2023-03-03T10:04:56;15.90;;;14.20;;
19089;SDS011;9677;50.656;13.064;2023-03-03T10:07:37;16.03;;;14.33;;
19089;SDS011;9677;50.656;13.064;2023-03-03T10:10:22;16.60;;;13.80;;
19089;SDS011;9677;50.656;13.064;2023-03-03T10:13:07;17.47;;;15.03;;
19089;SDS011;9677;50.656;13.064;2023-03-03T10:15:54;18.93;;;16.07;;
19089;SDS011;9677;50.656;13.064;2023-03-03T10:18:43;17.27;;;14.70;;
19089;SDS011;9677;50.656;13.064;2023-03-03T10:21:20;16.20;;;14.50;;
19089;SDS011;9677;50.656;13.064;2023-03-03T10:23:55;16.87;;;14.30;;
19089;SDS011;9677;50.656;13.064;2023-03-03T10:26:56;19.30;;;15.97;;
19089;SDS011;9677;50.656;13.064;2023-03-03T10:29:41;15.57;;;13.90;;
19089;SDS011;9677;50.656;13.064;2023-03-03T10:32:27;17.27;;;14.67;;
19089;SDS011;9677;50.656;13.064;2023-03-03T10:35:14;17.93;;;15.57;;
19089;SDS011;9677;50.656;13.064;2023-03-03T10:37:59;19.13;;;14.93;;
19089;SDS011;9677;50.656;13.064;2023-03-03T10:40:41;17.57;;;14.70;;
19089;SDS011;9677;50.656;13.064;2023-03-03T10:43:23;18.40;;;15.50;;
19089;SDS011;9677;50.656;13.064;2023-03-03T10:46:24;18.03;;;14.20;;
19089;SDS011;9677;50.656;13.064;2023-03-03T10:49:11;17.13;;;15.03;;
19089;SDS011;9677;50.656;13.064;2023-03-03T10:51:54;18.50;;;14.63;;
19089;SDS011;9677;50.656;13.064;2023-03-03T10:54:45;17.00;;;13.63;;
19089;SDS011;9677;50.656;13.064;2023-03-03T10:57:25;17.40;;;14.40;;
19089;SDS011;9677;50.656;13.064;2023-03-03T11:02:59;18.33;;;15.07;;
19089;SDS011;9677;50.656;13.064;2023-03-03T11:06:17;15.87;;;14.00;;
19089;SDS011;9677;50.656;13.064;2023-03-03T11:08:54;17.80;;;15.43;;
19089;SDS011;9677;50.656;13.064;2023-03-03T11:11:31;15.87;;;13.90;;
19089;SDS011;9677;50.656;13.064;2023-03-03T11:14:08;16.47;;;14.27;;
19089;SDS011;9677;50.656;13.064;2023-03-03T11:16:44;15.90;;;14.17;;
19089;SDS011;9677;50.656;13.064;2023-03-03T11:19:30;18.10;;;13.33;;
19089;SDS011;9677;50.656;13.064;2023-03-03T11:22:23;17.10;;;13.97;;
19089;SDS011;9677;50.656;13.064;2023-03-03T11:25:04;18.13;;;14.00;;
19089;SDS011;9677;50.656;13.064;2023-03-03T11:27:50;15.13;;;13.53;;
19089;SDS011;9677;50.656;13.064;2023-03-03T11:30:38;15.80;;;14.10;;
19089;SDS011;9677;50.656;13.064;2023-03-03T11:33:19;16.23;;;14.20;;
19089;SDS011;9677;50.656;13.064;2023-03-03T11:35:57;17.50;;;13.70;;
19089;SDS011;9677;50.656;13.064;2023-03-03T11:41:29;15.40;;;13.80;;
19089;SDS011;9677;50.656;13.064;2023-03-03T11:44:04;18.10;;;14.20;;
19089;SDS011;9677;50.656;13.064;2023-03-03T11:46:45;16.70;;;14.13;;
19089;SDS011;9677;50.656;13.064;2023-03-03T11:49:19;15.90;;;13.80;;
19089;SDS011;9677;50.656;13.064;2023-03-03T11:51:55;14.23;;;12.73;;
19089;SDS011;9677;50.656;13.064;2023-03-03T11:54:33;15.80;;;13.33;;
19089;SDS011;9677;50.656;13.064;2023-03-03T11:57:13;15.40;;;13.80;;
19089;SDS011;9677;50.656;13.064;2023-03-03T11:59:49;14.77;;;13.20;;
19089;SDS011;9677;50.656;13.064;2023-03-03T12:02:49;14.80;;;13.30;;
19089;SDS011;9677;50.656;13.064;2023-03-03T12:05:51;14.47;;;12.97;;
19089;SDS011;9677;50.656;13.064;2023-03-03T12:08:31;14.50;;;13.00;;
19089;SDS011;9677;50.656;13.064;2023-03-03T12:11:11;14.83;;;13.40;;
19089;SDS011;9677;50.656;13.064;2023-03-03T12:13:52;14.77;;;13.20;;
19089;SDS011;9677;50.656;13.064;2023-03-03T12:16:31;13.30;;;12.00;;
19089;SDS011;9677;50.656;13.064;2023-03-03T12:19:14;13.97;;;12.47;;
19089;SDS011;9677;50.656;13.064;2023-03-03T12:21:58;13.93;;;12.60;;
19089;SDS011;9677;50.656;13.064;2023-03-03T12:24:45;14.00;;;12.60;;
19089;SDS011;9677;50.656;13.064;2023-03-03T12:27:48;13.40;;;12.10;;
19089;SDS011;9677;50.656;13.064;2023-03-03T12:30:28;14.47;;;13.00;;
19089;SDS011;9677;50.656;13.064;2023-03-03T12:33:31;13.27;;;11.97;;
19089;SDS011;9677;50.656;13.064;2023-03-03T12:36:17;13.50;;;12.17;;
19089;SDS011;9677;50.656;13.064;2023-03-03T12:38:57;13.70;;;12.40;;
19089;SDS011;9677;50.656;13.064;2023-03-03T12:41:31;14.70;;;13.20;;
19089;SDS011;9677;50.656;13.064;2023-03-03T12:44:06;13.60;;;12.27;;
19089;SDS011;9677;50.656;13.064;2023-03-03T12:46:45;13.50;;;12.10;;
19089;SDS011;9677;50.656;13.064;2023-03-03T12:49:24;14.47;;;12.97;;
19089;SDS011;9677;50.656;13.064;2023-03-03T12:52:13;13.60;;;12.20;;
19089;SDS011;9677;50.656;13.064;2023-03-03T12:54:56;13.60;;;12.20;;
19089;SDS011;9677;50.656;13.064;2023-03-03T12:57:39;14.00;;;12.60;;
19089;SDS011;9677;50.656;13.064;2023-03-03T13:00:18;13.63;;;12.23;;
19089;SDS011;9677;50.656;13.064;2023-03-03T13:03:00;13.10;;;11.80;;
19089;SDS011;9677;50.656;13.064;2023-03-03T13:05:40;13.63;;;12.33;;
19089;SDS011;9677;50.656;13.064;2023-03-03T13:08:29;14.30;;;12.90;;
19089;SDS011;9677;50.656;13.064;2023-03-03T13:11:25;12.90;;;11.60;;
19089;SDS011;9677;50.656;13.064;2023-03-03T13:14:14;14.50;;;12.80;;
19089;SDS011;9677;50.656;13.064;2023-03-03T13:16:57;13.30;;;11.90;;
19089;SDS011;9677;50.656;13.064;2023-03-03T13:19:39;17.47;;;12.13;;
19089;SDS011;9677;50.656;13.064;2023-03-03T13:22:12;15.67;;;12.83;;
19089;SDS011;9677;50.656;13.064;2023-03-03T13:24:50;16.77;;;12.77;;
19089;SDS011;9677;50.656;13.064;2023-03-03T13:27:29;19.40;;;11.83;;
19089;SDS011;9677;50.656;13.064;2023-03-03T13:30:07;14.50;;;12.93;;
19089;SDS011;9677;50.656;13.064;2023-03-03T13:32:46;13.77;;;12.30;;
19089;SDS011;9677;50.656;13.064;2023-03-03T13:35:26;17.03;;;13.80;;
19089;SDS011;9677;50.656;13.064;2023-03-03T13:38:00;14.93;;;12.47;;
19089;SDS011;9677;50.656;13.064;2023-03-03T13:40:35;14.27;;;12.77;;
19089;SDS011;9677;50.656;13.064;2023-03-03T13:43:12;14.20;;;12.80;;
19089;SDS011;9677;50.656;13.064;2023-03-03T13:45:49;13.67;;;12.37;;
19089;SDS011;9677;50.656;13.064;2023-03-03T13:48:31;16.97;;;12.20;;
19089;SDS011;9677;50.656;13.064;2023-03-03T13:51:16;12.30;;;11.00;;
19089;SDS011;9677;50.656;13.064;2023-03-03T13:53:57;13.30;;;12.00;;
19089;SDS011;9677;50.656;13.064;2023-03-03T13:56:40;40.13;;;12.27;;
19089;SDS011;9677;50.656;13.064;2023-03-03T13:59:40;14.50;;;12.13;;
19089;SDS011;9677;50.656;13.064;2023-03-03T14:02:22;18.00;;;11.90;;
19089;SDS011;9677;50.656;13.064;2023-03-03T14:05:12;20.50;;;14.20;;
19089;SDS011;9677;50.656;13.064;2023-03-03T14:07:46;13.40;;;12.00;;
19089;SDS011;9677;50.656;13.064;2023-03-03T14:10:23;14.03;;;11.93;;
19089;SDS011;9677;50.656;13.064;2023-03-03T14:12:59;29.60;;;13.17;;
19089;SDS011;9677;50.656;13.064;2023-03-03T14:15:32;21.33;;;12.97;;
19089;SDS011;9677;50.656;13.064;2023-03-03T14:18:14;13.77;;;12.37;;
19089;SDS011;9677;50.656;13.064;2023-03-03T14:20:51;12.97;;;11.60;;
19089;SDS011;9677;50.656;13.064;2023-03-03T14:23:24;13.47;;;11.70;;
19089;SDS011;9677;50.656;13.064;2023-03-03T14:26:04;17.90;;;11.93;;
19089;SDS011;9677;50.656;13.064;2023-03-03T14:28:37;13.27;;;11.87;;
19089;SDS011;9677;50.656;13.064;2023-03-03T14:31:16;28.17;;;13.67;;
19089;SDS011;9677;50.656;13.064;2023-03-03T14:33:56;14.40;;;11.53;;
19089;SDS011;9677;50.656;13.064;2023-03-03T14:36:28;16.80;;;11.67;;
19089;SDS011;9677;50.656;13.064;2023-03-03T14:39:00;25.23;;;12.60;;
19089;SDS011;9677;50.656;13.064;2023-03-03T14:41:38;19.80;;;12.63;;
19089;SDS011;9677;50.656;13.064;2023-03-03T14:47:02;12.70;;;11.50;;
19089;SDS011;9677;50.656;13.064;2023-03-03T14:49:43;15.50;;;11.53;;
19089;SDS011;9677;50.656;13.064;2023-03-03T14:52:18;16.43;;;11.47;;
19089;SDS011;9677;50.656;13.064;2023-03-03T14:54:54;13.13;;;11.73;;
19089;SDS011;9677;50.656;13.064;2023-03-03T14:57:36;17.80;;;11.97;;
19089;SDS011;9677;50.656;13.064;2023-03-03T15:00:28;12.60;;;11.30;;
19089;SDS011;9677;50.656;13.064;2023-03-03T15:03:04;13.27;;;11.97;;
19089;SDS011;9677;50.656;13.064;2023-03-03T15:05:50;13.73;;;10.83;;
19089;SDS011;9677;50.656;13.064;2023-03-03T15:08:23;12.80;;;11.70;;
19089;SDS011;9677;50.656;13.064;2023-03-03T15:14:03;16.80;;;11.07;;
19089;SDS011;9677;50.656;13.064;2023-03-03T15:16:39;12.80;;;11.53;;
19089;SDS011;9677;50.656;13.064;2023-03-03T15:22:17;13.00;;;11.70;;
19089;SDS011;9677;50.656;13.064;2023-03-03T15:24:58;12.80;;;11.60;;
19089;SDS011;9677;50.656;13.064;2023-03-03T15:27:33;12.37;;;11.23;;
19089;SDS011;9677;50.656;13.064;2023-03-03T15:30:11;12.43;;;11.20;;
19089;SDS011;9677;50.656;13.064;2023-03-03T15:32:50;13.67;;;12.37;;
19089;SDS011;9677;50.656;13.064;2023-03-03T15:35:31;13.13;;;11.50;;
19089;SDS011;9677;50.656;13.064;2023-03-03T15:38:14;16.93;;;11.87;;
19089;SDS011;9677;50.656;13.064;2023-03-03T15:41:01;13.37;;;12.03;;
19089;SDS011;9677;50.656;13.064;2023-03-03T15:43:50;17.33;;;12.50;;
19089;SDS011;9677;50.656;13.064;2023-03-03T15:46:31;14.00;;;12.37;;
19089;SDS011;9677;50.656;13.064;2023-03-03T15:49:21;19.77;;;12.13;;
19089;SDS011;9677;50.656;13.064;2023-03-03T15:52:17;13.10;;;11.77;;
19089;SDS011;9677;50.656;13.064;2023-03-03T15:54:58;12.77;;;11.57;;
19089;SDS011;9677;50.656;13.064;2023-03-03T15:57:41;13.07;;;11.67;;
19089;SDS011;9677;50.656;13.064;2023-03-03T16:00:26;12.93;;;11.30;;
19089;SDS011;9677;50.656;13.064;2023-03-03T16:03:07;13.13;;;11.83;;
19089;SDS011;9677;50.656;13.064;2023-03-03T16:05:43;12.90;;;11.70;;
19089;SDS011;9677;50.656;13.064;2023-03-03T16:08:21;12.93;;;11.50;;
19089;SDS011;9677;50.656;13.064;2023-03-03T16:10:58;12.40;;;11.20;;
19089;SDS011;9677;50.656;13.064;2023-03-03T16:13:44;12.23;;;11.03;;
19089;SDS011;9677;50.656;13.064;2023-03-03T16:16:30;12.13;;;10.87;;
19089;SDS011;9677;50.656;13.064;2023-03-03T16:19:11;12.77;;;11.47;;
19089;SDS011;9677;50.656;13.064;2023-03-03T16:21:53;12.33;;;11.13;;
19089;SDS011;9677;50.656;13.064;2023-03-03T16:25:01;17.40;;;11.80;;
19089;SDS011;9677;50.656;13.064;2023-03-03T16:27:49;12.67;;;11.47;;
19089;SDS011;9677;50.656;13.064;2023-03-03T16:30:25;13.20;;;11.83;;
19089;SDS011;9677;50.656;13.064;2023-03-03T16:33:13;13.70;;;12.40;;
19089;SDS011;9677;50.656;13.064;2023-03-03T16:35:50;13.37;;;12.17;;
19089;SDS011;9677;50.656;13.064;2023-03-03T16:38:28;12.80;;;11.60;;
19089;SDS011;9677;50.656;13.064;2023-03-03T16:41:03;12.80;;;11.60;;
19089;SDS011;9677;50.656;13.064;2023-03-03T16:43:42;12.60;;;11.40;;
19089;SDS011;9677;50.656;13.064;2023-03-03T16:46:31;12.93;;;11.73;;